createdAt,value
2019-03-30T00:00:01.380Z,5.90
2019-03-30T00:01:01.364Z,6.00
2019-03-30T00:02:01.353Z,5.60
2019-03-30T00:03:01.352Z,5.30
2019-03-30T00:04:01.339Z,5.70
2019-03-30T00:05:01.326Z,6.10
2019-03-30T00:06:01.307Z,5.50
2019-03-30T00:07:01.311Z,6.00
2019-03-30T00:08:01.326Z,6.20
2019-03-30T00:09:01.279Z,5.50
2019-03-30T00:10:01.264Z,5.60
2019-03-30T00:11:01.251Z,5.60
2019-03-30T00:12:01.241Z,5.80
2019-03-30T00:13:01.229Z,5.90
2019-03-30T00:14:01.230Z,5.90
2019-03-30T00:15:01.211Z,6.10
2019-03-30T00:16:01.195Z,5.70
2019-03-30T00:17:01.188Z,5.30
2019-03-30T00:18:11.924Z,6.00
2019-03-30T00:19:01.169Z,5.60
2019-03-30T00:20:01.157Z,5.70
2019-03-30T00:21:01.142Z,5.90
2019-03-30T00:22:01.176Z,5.60
2019-03-30T00:23:01.115Z,5.50
2019-03-30T00:24:01.132Z,5.70
2019-03-30T00:25:01.098Z,5.20
2019-03-30T00:26:01.090Z,5.70
2019-03-30T00:27:01.073Z,5.60
2019-03-30T00:28:01.080Z,5.40
2019-03-30T00:29:01.063Z,6.00
2019-03-30T00:30:01.042Z,6.00
2019-03-30T00:31:01.033Z,5.60
2019-03-30T00:32:01.031Z,5.50
2019-03-30T00:33:01.005Z,5.50
2019-03-30T00:34:01.042Z,5.60
2019-03-30T00:35:00.990Z,5.60
2019-03-30T00:36:00.972Z,5.60
2019-03-30T00:37:00.963Z,6.00
2019-03-30T00:38:00.955Z,5.50
2019-03-30T00:39:00.943Z,5.40
2019-03-30T00:40:00.996Z,5.30
2019-03-30T00:41:00.922Z,5.70
2019-03-30T00:42:00.911Z,5.90
2019-03-30T00:43:00.900Z,5.50
2019-03-30T00:44:00.884Z,5.70
2019-03-30T00:45:00.950Z,5.30
2019-03-30T00:46:00.898Z,5.60
2019-03-30T00:47:00.857Z,5.60
2019-03-30T00:48:00.848Z,5.40
2019-03-30T00:49:00.833Z,5.50
2019-03-30T00:50:00.817Z,6.30
2019-03-30T00:51:00.862Z,5.70
2019-03-30T00:52:00.802Z,5.90
2019-03-30T00:53:00.790Z,5.50
2019-03-30T00:54:00.773Z,5.90
2019-03-30T00:55:00.771Z,6.00
2019-03-30T00:56:00.820Z,5.40
2019-03-30T00:57:00.745Z,5.90
2019-03-30T00:58:00.732Z,5.90
2019-03-30T00:59:00.723Z,5.60
2019-03-30T01:00:00.709Z,5.30
2019-03-30T01:01:00.701Z,5.50
2019-03-30T01:02:00.740Z,4.80
2019-03-30T01:03:00.676Z,5.10
2019-03-30T01:04:00.665Z,5.40
2019-03-30T01:05:00.654Z,5.50
2019-03-30T01:06:00.647Z,5.50
2019-03-30T01:07:00.686Z,5.10
2019-03-30T01:08:00.618Z,5.60
2019-03-30T01:09:00.607Z,5.80
2019-03-30T01:10:00.603Z,5.80
2019-03-30T01:11:00.590Z,5.70
2019-03-30T01:12:00.613Z,5.30
2019-03-30T01:13:00.570Z,5.70
2019-03-30T01:14:00.565Z,5.10
2019-03-30T01:15:00.548Z,5.10
2019-03-30T01:16:00.532Z,5.30
2019-03-30T01:17:00.520Z,4.50
2019-03-30T01:18:00.551Z,5.20
2019-03-30T01:19:00.504Z,5.30
2019-03-30T01:20:03.169Z,5.50
2019-03-30T01:21:00.476Z,5.40
2019-03-30T01:22:00.466Z,5.20
2019-03-30T01:23:00.460Z,5.80
2019-03-30T01:24:00.452Z,5.80
2019-03-30T01:25:00.431Z,5.20
2019-03-30T01:26:00.428Z,5.30
2019-03-30T01:27:00.417Z,5.40
2019-03-30T01:28:00.471Z,5.90
2019-03-30T01:29:00.403Z,5.60
2019-03-30T01:30:00.379Z,5.70
2019-03-30T01:31:00.375Z,5.60
2019-03-30T01:32:00.362Z,5.70
2019-03-30T01:33:00.354Z,5.50
2019-03-30T01:34:00.336Z,5.30
2019-03-30T01:35:00.398Z,5.50
2019-03-30T01:36:00.314Z,5.30
2019-03-30T01:37:00.299Z,5.40
2019-03-30T01:38:00.349Z,6.10
2019-03-30T01:39:00.277Z,5.90
2019-03-30T01:40:00.422Z,5.90
2019-03-30T01:41:00.300Z,5.60
2019-03-30T01:42:00.251Z,5.70
2019-03-30T01:43:00.234Z,5.60
2019-03-30T01:44:00.320Z,5.50
2019-03-30T01:45:00.271Z,5.40
2019-03-30T01:46:00.204Z,5.40
2019-03-30T01:47:00.190Z,5.80
2019-03-30T01:48:00.182Z,5.40
2019-03-30T01:49:00.174Z,5.60
2019-03-30T01:50:00.381Z,5.70
2019-03-30T01:51:00.151Z,5.80
2019-03-30T01:52:00.142Z,6.00
2019-03-30T01:53:00.129Z,5.70
2019-03-30T01:54:00.199Z,5.50
2019-03-30T01:55:00.106Z,5.70
2019-03-30T01:56:00.090Z,5.80
2019-03-30T01:57:00.079Z,6.00
2019-03-30T01:58:00.076Z,6.00
2019-03-30T01:59:00.063Z,5.60
2019-03-30T02:00:00.056Z,6.20
2019-03-30T02:01:00.035Z,6.10
2019-03-30T02:02:00.033Z,6.30
2019-03-30T02:03:00.014Z,5.80
2019-03-30T02:04:00.004Z,6.20
2019-03-30T02:05:00.056Z,6.00
2019-03-30T02:05:59.979Z,5.90
2019-03-30T02:06:59.974Z,5.90
2019-03-30T02:07:59.967Z,6.00
2019-03-30T02:08:59.949Z,6.00
2019-03-30T02:09:59.993Z,6.00
2019-03-30T02:10:59.926Z,6.10
2019-03-30T02:11:59.923Z,6.30
2019-03-30T02:12:59.907Z,6.20
2019-03-30T02:13:59.897Z,5.90
2019-03-30T02:14:59.955Z,5.70
2019-03-30T02:15:59.879Z,6.00
2019-03-30T02:16:59.861Z,5.70
2019-03-30T02:17:59.855Z,6.10
2019-03-30T02:18:59.837Z,5.90
2019-03-30T02:19:59.901Z,6.00
2019-03-30T02:20:59.884Z,6.00
2019-03-30T02:21:59.815Z,6.30
2019-03-30T02:22:59.794Z,6.00
2019-03-30T02:23:59.784Z,5.90
2019-03-30T02:24:59.771Z,6.00
2019-03-30T02:25:59.762Z,6.20
2019-03-30T02:26:59.804Z,6.30
2019-03-30T02:27:59.745Z,7.10
2019-03-30T02:28:59.729Z,7.00
2019-03-30T02:29:59.718Z,6.70
2019-03-30T02:30:59.712Z,6.80
2019-03-30T02:31:59.701Z,6.30
2019-03-30T02:32:59.757Z,6.60
2019-03-30T02:33:59.689Z,6.50
2019-03-30T02:34:59.662Z,6.50
2019-03-30T02:35:59.659Z,6.30
2019-03-30T02:36:59.713Z,6.00
2019-03-30T02:37:59.769Z,6.20
2019-03-30T02:38:59.637Z,6.40
2019-03-30T02:39:59.612Z,6.70
2019-03-30T02:40:59.601Z,5.90
2019-03-30T02:41:59.591Z,6.30
2019-03-30T02:42:59.576Z,6.30
2019-03-30T02:43:59.622Z,5.50
2019-03-30T02:44:59.555Z,6.60
2019-03-30T02:45:59.598Z,6.00
2019-03-30T02:46:59.535Z,5.80
2019-03-30T02:47:59.520Z,6.40
2019-03-30T02:48:59.518Z,5.80
2019-03-30T02:49:59.504Z,6.30
2019-03-30T02:50:59.497Z,5.30
2019-03-30T02:51:59.485Z,6.40
2019-03-30T02:52:59.470Z,5.90
2019-03-30T02:53:59.469Z,5.40
2019-03-30T02:54:59.446Z,5.80
2019-03-30T02:55:59.534Z,6.20
2019-03-30T02:56:59.432Z,6.10
2019-03-30T02:57:59.414Z,6.00
2019-03-30T02:58:59.404Z,5.80
2019-03-30T02:59:59.388Z,5.60
2019-03-30T03:00:59.434Z,6.10
2019-03-30T03:01:59.379Z,5.90
2019-03-30T03:02:59.359Z,5.60
2019-03-30T03:03:59.349Z,5.60
2019-03-30T03:04:59.387Z,6.10
2019-03-30T03:05:59.328Z,5.70
2019-03-30T03:06:59.365Z,6.10
2019-03-30T03:07:59.303Z,6.50
2019-03-30T03:08:59.294Z,6.30
2019-03-30T03:09:59.276Z,5.90
2019-03-30T03:10:59.302Z,6.20
2019-03-30T03:11:59.265Z,6.00
2019-03-30T03:12:59.247Z,5.90
2019-03-30T03:13:59.237Z,5.90
2019-03-30T03:14:59.228Z,5.60
2019-03-30T03:15:59.281Z,5.90
2019-03-30T03:16:59.206Z,6.30
2019-03-30T03:17:59.194Z,5.70
2019-03-30T03:18:59.178Z,6.00
2019-03-30T03:19:59.179Z,6.20
2019-03-30T03:21:07.200Z,6.30
2019-03-30T03:22:00.221Z,6.20
2019-03-30T03:22:59.134Z,6.00
2019-03-30T03:23:59.123Z,6.30
2019-03-30T03:24:59.116Z,6.90
2019-03-30T03:25:59.105Z,7.00
2019-03-30T03:26:59.097Z,6.10
2019-03-30T03:27:59.124Z,5.80
2019-03-30T03:28:59.073Z,6.00
2019-03-30T03:29:59.065Z,6.50
2019-03-30T03:30:59.056Z,6.20
2019-03-30T03:31:59.035Z,6.30
2019-03-30T03:32:59.103Z,5.90
2019-03-30T03:33:59.080Z,6.60
2019-03-30T03:34:59.019Z,6.30
2019-03-30T03:35:59.001Z,7.10
2019-03-30T03:36:58.981Z,6.80
2019-03-30T03:37:59.072Z,6.40
2019-03-30T03:38:58.999Z,6.50
2019-03-30T03:39:59.929Z,6.10
2019-03-30T03:40:58.940Z,6.60
2019-03-30T03:41:58.993Z,6.70
2019-03-30T03:42:58.917Z,6.70
2019-03-30T03:43:59.035Z,6.50
2019-03-30T03:44:58.893Z,6.60
2019-03-30T03:45:58.885Z,6.60
2019-03-30T03:46:58.877Z,7.10
2019-03-30T03:47:58.891Z,6.30
2019-03-30T03:48:58.857Z,6.40
2019-03-30T03:49:58.868Z,7.00
2019-03-30T03:50:58.941Z,6.70
2019-03-30T03:51:58.842Z,6.90
2019-03-30T03:52:58.823Z,7.00
2019-03-30T03:53:58.864Z,6.80
2019-03-30T03:54:58.798Z,6.60
2019-03-30T03:55:58.778Z,6.50
2019-03-30T03:56:58.762Z,6.80
2019-03-30T03:57:58.830Z,7.00
2019-03-30T03:58:58.747Z,6.60
2019-03-30T03:59:58.734Z,6.80
2019-03-30T04:00:58.720Z,7.10
2019-03-30T04:01:58.713Z,7.00
2019-03-30T04:02:58.703Z,6.90
2019-03-30T04:03:58.702Z,6.80
2019-03-30T04:04:58.751Z,6.90
2019-03-30T04:05:58.757Z,6.80
2019-03-30T04:06:58.656Z,6.60
2019-03-30T04:07:58.646Z,6.90
2019-03-30T04:08:58.643Z,7.00
2019-03-30T04:09:58.674Z,7.60
2019-03-30T04:10:58.612Z,8.00
2019-03-30T04:11:58.596Z,7.10
2019-03-30T04:12:58.588Z,6.80
2019-03-30T04:13:58.584Z,6.90
2019-03-30T04:14:58.663Z,7.10
2019-03-30T04:15:58.551Z,7.30
2019-03-30T04:16:58.544Z,6.80
2019-03-30T04:17:58.529Z,7.00
2019-03-30T04:18:58.522Z,6.70
2019-03-30T04:19:58.511Z,7.20
2019-03-30T04:20:58.573Z,6.90
2019-03-30T04:21:58.487Z,6.90
2019-03-30T04:22:58.481Z,6.80
2019-03-30T04:23:58.477Z,7.20
2019-03-30T04:24:58.460Z,7.00
2019-03-30T04:25:58.496Z,7.30
2019-03-30T04:26:58.430Z,7.30
2019-03-30T04:27:58.426Z,7.30
2019-03-30T04:28:58.459Z,6.70
2019-03-30T04:29:58.496Z,7.00
2019-03-30T04:30:58.399Z,7.00
2019-03-30T04:31:58.382Z,7.00
2019-03-30T04:32:58.368Z,7.70
2019-03-30T04:33:58.359Z,7.70
2019-03-30T04:34:58.372Z,7.40
2019-03-30T04:35:58.387Z,7.40
2019-03-30T04:36:58.328Z,7.60
2019-03-30T04:37:58.311Z,7.60
2019-03-30T04:38:58.302Z,7.80
2019-03-30T04:39:58.346Z,7.90
2019-03-30T04:40:58.281Z,7.70
2019-03-30T04:41:58.270Z,7.80
2019-03-30T04:42:58.268Z,7.30
2019-03-30T04:43:58.246Z,7.70
2019-03-30T04:44:58.243Z,7.80
2019-03-30T04:45:58.218Z,6.90
2019-03-30T04:46:58.221Z,7.40
2019-03-30T04:47:58.252Z,7.60
2019-03-30T04:48:58.205Z,6.90
2019-03-30T04:49:58.182Z,7.80
2019-03-30T04:50:58.217Z,7.50
2019-03-30T04:51:58.278Z,7.60
2019-03-30T04:52:58.145Z,7.10
2019-03-30T04:53:58.145Z,8.30
2019-03-30T04:54:58.128Z,7.10
2019-03-30T04:55:58.105Z,6.90
2019-03-30T04:56:58.100Z,7.30
2019-03-30T04:57:58.127Z,7.60
2019-03-30T04:58:58.141Z,7.90
2019-03-30T04:59:58.086Z,7.40
2019-03-30T05:00:58.063Z,7.40
2019-03-30T05:01:58.078Z,8.20
2019-03-30T05:02:58.034Z,7.60
2019-03-30T05:03:58.052Z,8.10
2019-03-30T05:04:58.078Z,8.00
2019-03-30T05:05:58.014Z,8.00
2019-03-30T05:06:57.989Z,7.70
2019-03-30T05:07:58.025Z,7.60
2019-03-30T05:08:57.962Z,7.40
2019-03-30T05:09:57.957Z,7.70
2019-03-30T05:10:57.943Z,7.90
2019-03-30T05:11:57.937Z,7.80
2019-03-30T05:12:57.972Z,7.90
2019-03-30T05:13:57.931Z,8.70
2019-03-30T05:14:58.479Z,8.20
2019-03-30T05:15:57.887Z,7.90
2019-03-30T05:16:57.880Z,8.00
2019-03-30T05:17:57.978Z,8.00
2019-03-30T05:18:57.852Z,7.60
2019-03-30T05:19:57.901Z,7.40
2019-03-30T05:20:57.833Z,7.60
2019-03-30T05:22:11.139Z,7.80
2019-03-30T05:22:58.803Z,7.80
2019-03-30T05:23:57.793Z,7.80
2019-03-30T05:24:57.840Z,8.10
2019-03-30T05:25:57.776Z,8.30
2019-03-30T05:26:57.762Z,8.50
2019-03-30T05:27:57.754Z,8.00
2019-03-30T05:28:57.736Z,8.20
2019-03-30T05:29:57.729Z,7.80
2019-03-30T05:30:57.733Z,8.40
2019-03-30T05:31:57.705Z,8.60
2019-03-30T05:33:05.505Z,8.30
2019-03-30T05:33:58.686Z,8.50
2019-03-30T05:34:57.669Z,8.60
2019-03-30T05:35:57.731Z,8.60
2019-03-30T05:36:57.651Z,8.00
2019-03-30T05:37:57.640Z,8.90
2019-03-30T05:38:57.629Z,8.00
2019-03-30T05:39:57.615Z,8.20
2019-03-30T05:40:57.620Z,8.00
2019-03-30T05:41:57.596Z,8.70
2019-03-30T05:42:57.607Z,8.30
2019-03-30T05:43:57.577Z,8.00
2019-03-30T05:44:58.062Z,8.70
2019-03-30T05:45:57.552Z,8.40
2019-03-30T05:46:57.536Z,8.60
2019-03-30T05:47:57.530Z,8.80
2019-03-30T05:48:57.569Z,8.60
2019-03-30T05:49:57.558Z,8.60
2019-03-30T05:50:57.493Z,9.30
2019-03-30T05:51:57.492Z,8.90
2019-03-30T05:52:57.478Z,8.80
2019-03-30T05:53:57.527Z,9.20
2019-03-30T05:54:57.448Z,9.10
2019-03-30T05:55:57.439Z,9.10
2019-03-30T05:56:57.453Z,9.00
2019-03-30T05:57:57.417Z,8.60
2019-03-30T05:58:57.406Z,9.20
2019-03-30T05:59:57.402Z,9.00
2019-03-30T06:00:57.963Z,8.50
2019-03-30T06:01:57.390Z,9.10
2019-03-30T06:02:57.515Z,8.60
2019-03-30T06:03:57.355Z,9.70
2019-03-30T06:04:58.687Z,9.30
2019-03-30T06:05:57.357Z,9.60
2019-03-30T06:06:57.326Z,9.10
2019-03-30T06:07:57.366Z,9.40
2019-03-30T06:08:57.293Z,9.50
2019-03-30T06:09:57.286Z,9.10
2019-03-30T06:10:57.328Z,9.00
2019-03-30T06:11:57.276Z,9.20
2019-03-30T06:12:57.269Z,10.10
2019-03-30T06:13:57.244Z,8.90
2019-03-30T06:14:57.232Z,9.30
2019-03-30T06:15:57.224Z,9.70
2019-03-30T06:16:57.213Z,9.90
2019-03-30T06:17:57.200Z,9.00
2019-03-30T06:18:57.259Z,9.60
2019-03-30T06:19:57.178Z,9.70
2019-03-30T06:20:57.166Z,9.50
2019-03-30T06:21:57.160Z,9.50
2019-03-30T06:22:57.145Z,9.40
2019-03-30T06:23:57.172Z,9.50
2019-03-30T06:24:57.126Z,9.80
2019-03-30T06:25:57.113Z,10.20
2019-03-30T06:26:57.167Z,9.50
2019-03-30T06:27:57.094Z,9.50
2019-03-30T06:28:57.079Z,10.20
2019-03-30T06:29:57.152Z,10.50
2019-03-30T06:30:57.057Z,9.60
2019-03-30T06:31:57.058Z,9.60
2019-03-30T06:32:57.032Z,9.80
2019-03-30T06:33:57.024Z,9.40
2019-03-30T06:34:57.013Z,10.20
2019-03-30T06:35:57.052Z,10.30
2019-03-30T06:36:56.988Z,10.40
2019-03-30T06:37:56.975Z,9.30
2019-03-30T06:38:56.967Z,10.00
2019-03-30T06:39:56.959Z,9.80
2019-03-30T06:40:56.995Z,10.40
2019-03-30T06:41:56.937Z,10.30
2019-03-30T06:42:56.922Z,10.60
2019-03-30T06:43:56.908Z,10.80
2019-03-30T06:44:56.903Z,10.70
2019-03-30T06:45:56.942Z,10.40
2019-03-30T06:46:56.922Z,10.50
2019-03-30T06:47:56.864Z,9.80
2019-03-30T06:48:56.862Z,10.40
2019-03-30T06:49:56.857Z,10.10
2019-03-30T06:50:56.837Z,11.00
2019-03-30T06:51:56.831Z,11.50
2019-03-30T06:52:58.863Z,10.50
2019-03-30T06:53:56.801Z,10.80
2019-03-30T06:54:56.793Z,10.60
2019-03-30T06:55:56.777Z,10.90
2019-03-30T06:56:56.765Z,11.00
2019-03-30T06:57:56.758Z,11.30
2019-03-30T06:58:56.815Z,12.70
2019-03-30T06:59:56.738Z,11.90
2019-03-30T07:00:56.722Z,10.20
2019-03-30T07:01:56.767Z,11.50
2019-03-30T07:02:56.713Z,11.30
2019-03-30T07:03:56.696Z,11.60
2019-03-30T07:04:56.681Z,11.70
2019-03-30T07:05:56.667Z,12.00
2019-03-30T07:06:56.690Z,11.60
2019-03-30T07:07:56.647Z,11.40
2019-03-30T07:08:56.636Z,12.10
2019-03-30T07:09:56.634Z,11.90
2019-03-30T07:10:56.617Z,11.60
2019-03-30T07:11:56.606Z,12.20
2019-03-30T07:12:56.592Z,12.20
2019-03-30T07:13:56.710Z,11.90
2019-03-30T07:14:56.569Z,12.10
2019-03-30T07:15:56.562Z,12.00
2019-03-30T07:16:56.619Z,12.00
2019-03-30T07:17:56.531Z,11.90
2019-03-30T07:18:56.524Z,12.10
2019-03-30T07:19:56.553Z,11.60
2019-03-30T07:20:56.505Z,12.30
2019-03-30T07:21:56.492Z,12.00
2019-03-30T07:23:10.690Z,11.70
2019-03-30T07:23:57.471Z,12.10
2019-03-30T07:24:56.458Z,12.20
2019-03-30T07:25:56.450Z,12.50
2019-03-30T07:26:56.437Z,12.90
2019-03-30T07:27:56.420Z,13.10
2019-03-30T07:28:56.419Z,12.60
2019-03-30T07:29:56.416Z,12.30
2019-03-30T07:30:56.393Z,12.10
2019-03-30T07:31:56.377Z,12.80
2019-03-30T07:32:56.371Z,12.10
2019-03-30T07:33:56.441Z,13.30
2019-03-30T07:34:56.344Z,13.70
2019-03-30T07:35:56.352Z,12.90
2019-03-30T07:36:56.972Z,13.20
2019-03-30T07:37:56.974Z,12.40
2019-03-30T07:38:56.987Z,12.20
2019-03-30T07:39:56.341Z,12.70
2019-03-30T07:40:56.373Z,12.80
2019-03-30T07:41:56.271Z,12.20
2019-03-30T07:42:56.256Z,12.80
2019-03-30T07:43:56.326Z,12.60
2019-03-30T07:44:56.235Z,12.40
2019-03-30T07:45:56.227Z,12.40
2019-03-30T07:46:56.223Z,13.30
2019-03-30T07:47:56.200Z,12.30
2019-03-30T07:48:56.196Z,13.60
2019-03-30T07:49:56.199Z,12.40
2019-03-30T07:50:56.171Z,13.50
2019-03-30T07:51:56.231Z,13.30
2019-03-30T07:52:56.144Z,13.00
2019-03-30T07:53:56.142Z,13.50
2019-03-30T07:54:56.126Z,12.40
2019-03-30T07:56:07.669Z,13.40
2019-03-30T07:57:05.421Z,12.80
2019-03-30T07:57:57.124Z,12.60
2019-03-30T07:58:56.083Z,12.70
2019-03-30T07:59:56.070Z,13.20
2019-03-30T08:00:56.057Z,13.50
2019-03-30T08:01:56.060Z,13.60
2019-03-30T08:02:56.044Z,13.20
2019-03-30T08:03:56.021Z,13.70
2019-03-30T08:04:56.015Z,13.80
2019-03-30T08:05:56.026Z,13.90
2019-03-30T08:06:55.996Z,13.80
2019-03-30T08:07:55.995Z,14.20
2019-03-30T08:08:55.980Z,14.00
2019-03-30T08:09:55.966Z,14.40
2019-03-30T08:10:55.949Z,14.50
2019-03-30T08:11:55.938Z,14.40
2019-03-30T08:12:55.925Z,14.20
2019-03-30T08:13:55.922Z,14.90
2019-03-30T08:14:55.899Z,14.30
2019-03-30T08:15:55.895Z,14.30
2019-03-30T08:16:55.878Z,16.90
2019-03-30T08:17:55.886Z,14.90
2019-03-30T08:18:55.858Z,14.10
2019-03-30T08:19:55.844Z,14.60
2019-03-30T08:20:55.833Z,14.50
2019-03-30T08:21:55.828Z,14.20
2019-03-30T08:22:55.819Z,13.60
2019-03-30T08:23:56.013Z,14.90
2019-03-30T08:24:56.483Z,15.10
2019-03-30T08:25:55.810Z,14.30
2019-03-30T08:26:55.840Z,15.20
2019-03-30T08:27:55.824Z,14.40
2019-03-30T08:28:55.753Z,14.30
2019-03-30T08:29:55.758Z,14.40
2019-03-30T08:30:55.728Z,14.40
2019-03-30T08:31:55.749Z,13.80
2019-03-30T08:32:55.702Z,14.50
2019-03-30T08:33:55.697Z,13.20
2019-03-30T08:34:55.681Z,14.40
2019-03-30T08:35:55.664Z,13.70
2019-03-30T08:36:59.046Z,14.40
2019-03-30T08:37:55.648Z,15.10
2019-03-30T08:38:55.641Z,14.40
2019-03-30T08:39:55.620Z,14.00
2019-03-30T08:40:55.615Z,14.60
2019-03-30T08:41:55.597Z,14.20
2019-03-30T08:42:55.594Z,14.20
2019-03-30T08:43:55.585Z,15.10
2019-03-30T08:44:55.579Z,14.90
2019-03-30T08:45:55.564Z,15.00
2019-03-30T08:46:55.544Z,14.80
2019-03-30T08:47:55.533Z,14.90
2019-03-30T08:48:55.525Z,15.50
2019-03-30T08:49:55.510Z,15.20
2019-03-30T08:50:55.512Z,14.90
2019-03-30T08:51:55.489Z,15.50
2019-03-30T08:52:55.477Z,15.30
2019-03-30T08:53:55.466Z,13.90
2019-03-30T08:54:55.463Z,15.30
2019-03-30T08:55:55.490Z,14.80
2019-03-30T08:56:55.439Z,14.80
2019-03-30T08:57:55.438Z,15.70
2019-03-30T08:58:55.502Z,15.50
2019-03-30T08:59:55.402Z,15.00
2019-03-30T09:00:55.477Z,15.50
2019-03-30T09:01:55.399Z,14.40
2019-03-30T09:02:55.371Z,15.40
2019-03-30T09:03:55.374Z,15.10
2019-03-30T09:04:55.380Z,15.00
2019-03-30T09:05:55.346Z,15.70
2019-03-30T09:06:55.331Z,14.50
2019-03-30T09:07:55.315Z,14.30
2019-03-30T09:08:55.428Z,15.10
2019-03-30T09:09:55.288Z,14.30
2019-03-30T09:10:55.305Z,15.10
2019-03-30T09:11:55.282Z,14.90
2019-03-30T09:12:55.273Z,13.40
2019-03-30T09:13:55.253Z,14.20
2019-03-30T09:14:55.293Z,14.30
2019-03-30T09:15:56.030Z,14.10
2019-03-30T09:16:55.215Z,14.20
2019-03-30T09:17:55.204Z,14.50
2019-03-30T09:18:55.193Z,14.20
2019-03-30T09:19:55.186Z,14.10
2019-03-30T09:20:55.173Z,13.60
2019-03-30T09:21:55.164Z,14.90
2019-03-30T09:22:55.170Z,14.40
2019-03-30T09:24:09.051Z,14.50
2019-03-30T09:24:56.125Z,13.80
2019-03-30T09:25:55.116Z,13.10
2019-03-30T09:26:55.108Z,12.60
2019-03-30T09:27:55.088Z,13.20
2019-03-30T09:28:55.088Z,14.00
2019-03-30T09:29:55.065Z,13.80
2019-03-30T09:30:55.061Z,14.30
2019-03-30T09:31:55.042Z,13.20
2019-03-30T09:32:55.055Z,13.10
2019-03-30T09:33:55.019Z,14.00
2019-03-30T09:34:55.014Z,14.00
2019-03-30T09:35:55.050Z,14.50
2019-03-30T09:36:55.103Z,13.40
2019-03-30T09:37:54.981Z,13.20
2019-03-30T09:38:54.977Z,12.60
2019-03-30T09:39:54.964Z,12.40
2019-03-30T09:40:54.942Z,13.10
2019-03-30T09:41:54.938Z,12.50
2019-03-30T09:42:54.974Z,12.50
2019-03-30T09:43:54.908Z,13.20
2019-03-30T09:44:54.931Z,12.70
2019-03-30T09:45:54.888Z,13.30
2019-03-30T09:46:54.881Z,14.70
2019-03-30T09:47:54.866Z,12.60
2019-03-30T09:48:54.859Z,13.20
2019-03-30T09:49:54.848Z,12.70
2019-03-30T09:50:54.848Z,13.40
2019-03-30T09:51:54.826Z,13.30
2019-03-30T09:52:54.814Z,13.20
2019-03-30T09:53:54.802Z,12.20
2019-03-30T09:54:54.792Z,11.40
2019-03-30T09:55:54.789Z,12.40
2019-03-30T09:56:54.774Z,11.70
2019-03-30T09:57:54.761Z,11.70
2019-03-30T09:58:54.750Z,12.00
2019-03-30T09:59:55.029Z,11.90
2019-03-30T10:00:54.738Z,11.30
2019-03-30T10:01:55.510Z,11.00
2019-03-30T10:02:54.706Z,11.50
2019-03-30T10:03:54.763Z,12.50
2019-03-30T10:04:54.717Z,11.00
2019-03-30T10:05:54.674Z,12.00
2019-03-30T10:06:54.676Z,12.60
2019-03-30T10:07:54.650Z,12.10
2019-03-30T10:08:54.639Z,11.10
2019-03-30T10:09:54.645Z,11.10
2019-03-30T10:10:54.630Z,11.30
2019-03-30T10:11:54.609Z,11.30
2019-03-30T10:12:54.598Z,10.80
2019-03-30T10:13:54.587Z,11.00
2019-03-30T10:14:54.596Z,10.80
2019-03-30T10:15:54.561Z,11.80
2019-03-30T10:16:54.549Z,11.40
2019-03-30T10:17:54.539Z,10.60
2019-03-30T10:18:54.533Z,10.30
2019-03-30T10:20:04.377Z,10.50
2019-03-30T10:20:55.521Z,10.50
2019-03-30T10:21:54.513Z,11.10
2019-03-30T10:22:54.486Z,10.70
2019-03-30T10:23:54.479Z,10.00
2019-03-30T10:24:54.465Z,10.80
2019-03-30T10:25:54.450Z,10.30
2019-03-30T10:26:54.478Z,10.30
2019-03-30T10:27:54.459Z,9.80
2019-03-30T10:28:54.428Z,10.60
2019-03-30T10:29:54.412Z,10.40
2019-03-30T10:30:54.403Z,10.10
2019-03-30T10:31:54.391Z,10.70
2019-03-30T10:32:54.392Z,11.30
2019-03-30T10:33:54.383Z,10.00
2019-03-30T10:34:54.395Z,10.10
2019-03-30T10:35:54.347Z,10.30
2019-03-30T10:36:54.337Z,10.10
2019-03-30T10:37:54.324Z,10.00
2019-03-30T10:38:54.368Z,10.40
2019-03-30T10:39:54.301Z,9.70
2019-03-30T10:40:54.362Z,9.20
2019-03-30T10:41:54.278Z,9.70
2019-03-30T10:42:54.273Z,9.50
2019-03-30T10:43:54.261Z,8.90
2019-03-30T10:44:54.252Z,10.60
2019-03-30T10:45:54.233Z,10.30
2019-03-30T10:46:54.228Z,10.10
2019-03-30T10:47:54.213Z,10.00
2019-03-30T10:48:55.029Z,9.60
2019-03-30T10:49:54.261Z,9.90
2019-03-30T10:50:54.183Z,9.30
2019-03-30T10:51:54.993Z,10.40
2019-03-30T10:52:54.160Z,10.70
2019-03-30T10:53:54.145Z,10.40
2019-03-30T10:54:54.151Z,10.10
2019-03-30T10:55:54.126Z,9.80
2019-03-30T10:56:54.116Z,10.00
2019-03-30T10:57:54.109Z,9.80
2019-03-30T10:58:54.093Z,10.20
2019-03-30T10:59:54.077Z,10.40
2019-03-30T11:00:54.077Z,10.10
2019-03-30T11:01:54.056Z,10.80
2019-03-30T11:02:54.050Z,10.60
2019-03-30T11:03:54.037Z,10.70
2019-03-30T11:04:54.036Z,10.90
2019-03-30T11:05:54.034Z,10.40
2019-03-30T11:06:54.012Z,10.70
2019-03-30T11:07:53.990Z,10.90
2019-03-30T11:08:53.989Z,11.00
2019-03-30T11:09:53.973Z,10.00
2019-03-30T11:10:53.991Z,10.00
2019-03-30T11:11:53.951Z,10.70
2019-03-30T11:12:53.941Z,10.60
2019-03-30T11:13:53.926Z,10.70
2019-03-30T11:14:53.915Z,10.80
2019-03-30T11:15:53.909Z,9.70
2019-03-30T11:16:53.968Z,9.70
2019-03-30T11:17:53.884Z,10.30
2019-03-30T11:18:53.879Z,8.50
2019-03-30T11:19:53.868Z,9.40
2019-03-30T11:20:53.861Z,9.70
2019-03-30T11:21:53.853Z,8.90
2019-03-30T11:22:53.830Z,9.40
2019-03-30T11:23:53.820Z,9.40
2019-03-30T11:25:06.571Z,8.80
2019-03-30T11:25:54.797Z,9.00
2019-03-30T11:26:53.808Z,10.10
2019-03-30T11:27:53.776Z,9.20
2019-03-30T11:28:53.761Z,10.30
2019-03-30T11:29:53.808Z,10.40
2019-03-30T11:30:53.740Z,9.40
2019-03-30T11:31:53.731Z,8.90
2019-03-30T11:32:53.720Z,9.30
2019-03-30T11:33:53.711Z,9.00
2019-03-30T11:34:53.699Z,8.80
2019-03-30T11:35:53.701Z,8.40
2019-03-30T11:36:53.678Z,7.90
2019-03-30T11:37:53.662Z,8.80
2019-03-30T11:38:53.657Z,9.00
2019-03-30T11:39:53.645Z,9.10
2019-03-30T11:40:53.700Z,8.00
2019-03-30T11:41:53.663Z,8.30
2019-03-30T11:42:53.614Z,8.10
2019-03-30T11:43:53.599Z,7.00
2019-03-30T11:44:53.588Z,6.70
2019-03-30T11:45:53.577Z,7.20
2019-03-30T11:46:53.573Z,7.90
2019-03-30T11:47:53.614Z,8.90
2019-03-30T11:48:53.549Z,10.20
2019-03-30T11:49:53.534Z,7.80
2019-03-30T11:50:53.523Z,7.00
2019-03-30T11:51:53.525Z,7.80
2019-03-30T11:52:53.515Z,6.80
2019-03-30T11:53:53.490Z,6.70
2019-03-30T11:54:53.483Z,7.70
2019-03-30T11:55:53.478Z,7.20
2019-03-30T11:56:53.499Z,7.00
2019-03-30T11:57:53.500Z,6.50
2019-03-30T11:58:53.441Z,6.90
2019-03-30T11:59:53.427Z,7.20
2019-03-30T12:00:53.418Z,7.00
2019-03-30T12:01:53.407Z,6.70
2019-03-30T12:02:53.403Z,6.50
2019-03-30T12:03:53.382Z,6.90
2019-03-30T12:04:53.440Z,7.20
2019-03-30T12:05:53.421Z,6.80
2019-03-30T12:06:53.353Z,7.10
2019-03-30T12:07:53.343Z,6.70
2019-03-30T12:08:53.333Z,7.00
2019-03-30T12:09:53.321Z,7.60
2019-03-30T12:10:53.570Z,7.30
2019-03-30T12:11:53.301Z,7.60
2019-03-30T12:12:53.290Z,7.80
2019-03-30T12:13:53.276Z,7.30
2019-03-30T12:14:53.283Z,7.70
2019-03-30T12:15:53.272Z,8.70
2019-03-30T12:16:53.248Z,7.70
2019-03-30T12:17:53.236Z,8.10
2019-03-30T12:18:53.229Z,7.70
2019-03-30T12:19:53.218Z,7.50
2019-03-30T12:20:53.214Z,8.30
2019-03-30T12:21:53.193Z,7.30
2019-03-30T12:22:53.183Z,7.30
2019-03-30T12:23:53.166Z,7.60
2019-03-30T12:24:53.160Z,7.90
2019-03-30T12:25:53.202Z,7.40
2019-03-30T12:26:55.512Z,6.60
2019-03-30T12:27:53.135Z,7.10
2019-03-30T12:28:53.119Z,6.80
2019-03-30T12:29:53.140Z,6.90
2019-03-30T12:30:53.096Z,7.30
2019-03-30T12:31:53.084Z,7.10
2019-03-30T12:32:53.069Z,6.60
2019-03-30T12:33:53.062Z,6.70
2019-03-30T12:34:53.052Z,6.70
2019-03-30T12:35:53.053Z,6.50
2019-03-30T12:36:55.663Z,6.00
2019-03-30T12:37:53.014Z,6.00
2019-03-30T12:38:53.011Z,6.60
2019-03-30T12:39:52.995Z,6.80
2019-03-30T12:40:52.986Z,6.90
2019-03-30T12:41:52.973Z,6.90
2019-03-30T12:42:52.974Z,6.70
2019-03-30T12:43:52.951Z,6.90
2019-03-30T12:44:52.937Z,6.00
2019-03-30T12:45:52.957Z,6.40
2019-03-30T12:46:52.916Z,5.90
2019-03-30T12:47:52.909Z,6.30
2019-03-30T12:48:52.897Z,5.10
2019-03-30T12:49:52.886Z,5.80
2019-03-30T12:50:52.877Z,6.00
2019-03-30T12:51:52.872Z,5.90
2019-03-30T12:52:52.856Z,5.90
2019-03-30T12:53:52.843Z,5.60
2019-03-30T12:54:52.830Z,5.30
2019-03-30T12:55:52.821Z,5.90
2019-03-30T12:56:52.824Z,6.00
2019-03-30T12:57:52.799Z,6.10
2019-03-30T12:58:52.790Z,5.60
2019-03-30T12:59:52.776Z,6.40
2019-03-30T13:00:52.764Z,5.40
2019-03-30T13:01:52.770Z,4.50
2019-03-30T13:02:52.744Z,4.60
2019-03-30T13:03:52.735Z,4.60
2019-03-30T13:04:52.721Z,4.60
2019-03-30T13:05:52.711Z,4.50
2019-03-30T13:06:52.777Z,4.60
2019-03-30T13:07:52.694Z,4.80
2019-03-30T13:08:52.680Z,5.60